createdAt,value
2019-01-27T00:01:24.475Z,99.90
2019-01-27T00:04:02.178Z,99.90
2019-01-27T00:06:38.989Z,99.90
2019-01-27T00:09:17.427Z,99.90
2019-01-27T00:11:53.490Z,99.90
2019-01-27T00:14:31.436Z,99.90
2019-01-27T00:17:08.188Z,99.90
2019-01-27T00:19:44.998Z,99.90
2019-01-27T00:22:21.952Z,99.90
2019-01-27T00:24:58.931Z,99.90
2019-01-27T00:27:35.634Z,99.90
2019-01-27T00:30:17.165Z,99.90
2019-01-27T00:32:54.363Z,99.90
2019-01-27T00:35:31.170Z,99.90
2019-01-27T00:38:08.467Z,99.90
2019-01-27T00:40:45.216Z,99.90
2019-01-27T00:43:22.116Z,99.90
2019-01-27T00:45:59.537Z,99.90
2019-01-27T00:48:36.141Z,99.50
2019-01-27T00:51:12.924Z,99.20
2019-01-27T00:53:50.036Z,99.00
2019-01-27T00:56:26.818Z,98.90
2019-01-27T00:59:04.167Z,98.60
2019-01-27T01:01:41.397Z,98.40
2019-01-27T01:04:18.048Z,97.70
2019-01-27T01:06:55.218Z,97.60
2019-01-27T01:09:31.861Z,98.10
2019-01-27T01:12:09.822Z,97.50
2019-01-27T01:14:47.042Z,97.40
2019-01-27T01:17:24.033Z,96.90
2019-01-27T01:20:00.595Z,95.80
2019-01-27T01:22:37.409Z,96.20
2019-01-27T01:25:16.677Z,96.20
2019-01-27T01:27:55.206Z,95.90
2019-01-27T01:30:33.369Z,94.50
2019-01-27T01:33:10.203Z,95.10
2019-01-27T01:35:47.108Z,94.70
2019-01-27T01:38:23.882Z,94.40
2019-01-27T01:41:01.190Z,94.40
2019-01-27T01:43:38.061Z,94.20
2019-01-27T01:46:15.503Z,94.30
2019-01-27T01:48:52.237Z,92.50
2019-01-27T01:51:28.880Z,93.40
2019-01-27T01:54:06.118Z,91.90
2019-01-27T01:56:43.102Z,92.20
2019-01-27T01:59:20.008Z,91.20
2019-01-27T02:01:56.912Z,90.60
2019-01-27T02:04:33.516Z,91.00
2019-01-27T02:07:09.954Z,90.60
2019-01-27T02:09:47.136Z,90.60
2019-01-27T02:12:23.761Z,91.20
2019-01-27T02:15:00.926Z,90.90
2019-01-27T02:17:38.391Z,90.30
2019-01-27T02:20:15.425Z,89.50
2019-01-27T02:22:51.843Z,89.80
2019-01-27T02:25:28.821Z,89.80
2019-01-27T02:28:05.628Z,86.70
2019-01-27T02:30:42.806Z,86.90
2019-01-27T02:33:19.098Z,88.40
2019-01-27T02:35:56.190Z,84.60
2019-01-27T02:38:33.077Z,84.90
2019-01-27T02:41:11.332Z,84.10
2019-01-27T02:43:48.116Z,84.50
2019-01-27T02:46:25.483Z,83.10
2019-01-27T02:49:02.569Z,82.30
2019-01-27T02:51:39.421Z,80.20
2019-01-27T02:54:16.968Z,81.60
2019-01-27T02:56:53.632Z,81.40
2019-01-27T02:59:30.588Z,80.20
2019-01-27T03:02:08.597Z,81.80
2019-01-27T03:04:45.048Z,78.70
2019-01-27T03:07:32.006Z,79.90
2019-01-27T03:10:26.880Z,78.70
2019-01-27T03:13:03.839Z,78.50
2019-01-27T03:15:40.953Z,77.30
2019-01-27T03:18:17.768Z,76.00
2019-01-27T03:20:54.543Z,74.10
2019-01-27T03:23:31.543Z,71.90
2019-01-27T03:26:08.253Z,73.90
2019-01-27T03:28:46.245Z,74.10
2019-01-27T03:31:26.996Z,72.00
2019-01-27T03:34:03.752Z,71.30
2019-01-27T03:36:40.564Z,71.70
2019-01-27T03:39:18.221Z,70.40
2019-01-27T03:41:55.356Z,73.70
2019-01-27T03:44:33.369Z,72.80
2019-01-27T03:47:10.241Z,67.50
2019-01-27T03:49:47.980Z,72.00
2019-01-27T03:52:25.148Z,71.80
2019-01-27T03:55:02.369Z,72.30
2019-01-27T03:57:39.314Z,72.40
2019-01-27T04:00:19.969Z,70.80
2019-01-27T04:02:56.731Z,71.40
2019-01-27T04:05:34.028Z,71.40
2019-01-27T04:08:10.501Z,70.20
2019-01-27T04:10:47.534Z,69.70
2019-01-27T04:13:24.166Z,68.60
2019-01-27T04:16:01.341Z,68.70
2019-01-27T04:18:38.213Z,66.60
2019-01-27T04:21:14.784Z,68.10
2019-01-27T04:23:51.771Z,67.20
2019-01-27T04:26:28.786Z,67.70
2019-01-27T04:29:06.052Z,65.30
2019-01-27T04:31:42.355Z,68.00
2019-01-27T04:34:21.288Z,64.50
2019-01-27T04:36:59.098Z,63.60
2019-01-27T04:39:36.106Z,67.70
2019-01-27T04:42:12.704Z,65.10
2019-01-27T04:44:51.427Z,62.50
2019-01-27T04:47:28.352Z,61.40
2019-01-27T04:50:05.355Z,65.70
2019-01-27T04:52:42.219Z,62.30
2019-01-27T04:55:19.521Z,60.50
2019-01-27T04:57:56.158Z,61.90
2019-01-27T05:00:34.906Z,61.40
2019-01-27T05:03:18.599Z,58.70
2019-01-27T05:05:56.014Z,58.90
2019-01-27T05:08:32.903Z,64.60
2019-01-27T05:11:09.974Z,60.30
2019-01-27T05:13:46.819Z,61.20
2019-01-27T05:16:23.803Z,64.50
2019-01-27T05:19:00.805Z,57.70
2019-01-27T05:21:37.991Z,60.40
2019-01-27T05:24:14.862Z,60.40
2019-01-27T05:26:51.608Z,65.10
2019-01-27T05:29:28.576Z,59.70
2019-01-27T05:32:05.616Z,61.30
2019-01-27T05:34:42.287Z,61.70
2019-01-27T05:37:19.468Z,60.70
2019-01-27T05:39:56.273Z,59.90
2019-01-27T05:42:33.033Z,61.40
2019-01-27T05:45:10.639Z,59.70
2019-01-27T05:47:47.873Z,59.00
2019-01-27T05:50:25.168Z,57.10
2019-01-27T05:53:01.795Z,57.90
2019-01-27T05:55:38.320Z,58.80
2019-01-27T05:58:15.512Z,57.50
2019-01-27T06:00:52.314Z,57.70
2019-01-27T06:03:29.488Z,59.80
2019-01-27T06:06:07.380Z,57.60
2019-01-27T06:08:45.680Z,56.10
2019-01-27T06:11:23.462Z,60.40
2019-01-27T06:14:01.586Z,57.60
2019-01-27T06:16:39.310Z,59.10
2019-01-27T06:19:16.139Z,56.20
2019-01-27T06:21:52.566Z,55.50
2019-01-27T06:24:29.535Z,57.80
2019-01-27T06:27:06.264Z,57.90
2019-01-27T06:29:43.134Z,56.70
2019-01-27T06:32:38.818Z,56.50
2019-01-27T06:35:15.803Z,57.30
2019-01-27T06:37:52.403Z,52.80
2019-01-27T06:40:29.272Z,55.10
2019-01-27T06:43:05.733Z,54.60
2019-01-27T06:45:43.511Z,54.00
2019-01-27T06:48:20.907Z,55.80
2019-01-27T06:50:58.096Z,55.40
2019-01-27T06:53:35.209Z,55.70
2019-01-27T06:56:12.891Z,57.20
2019-01-27T06:59:06.890Z,55.90
2019-01-27T07:01:50.807Z,57.90
2019-01-27T07:04:45.615Z,54.80
2019-01-27T07:07:32.743Z,54.10
2019-01-27T07:10:26.194Z,55.30
2019-01-27T07:13:27.020Z,55.10
2019-01-27T07:16:15.151Z,55.60
2019-01-27T07:19:12.825Z,56.60
2019-01-27T07:22:09.770Z,55.50
2019-01-27T07:24:55.612Z,55.60
2019-01-27T07:27:41.870Z,52.90
2019-01-27T07:30:49.962Z,50.90
2019-01-27T07:33:47.636Z,51.70
2019-01-27T07:36:49.192Z,55.80
2019-01-27T07:39:53.852Z,55.00
2019-01-27T07:42:51.902Z,52.90
2019-01-27T07:45:45.267Z,55.60
2019-01-27T07:48:41.164Z,54.40
2019-01-27T07:51:47.970Z,53.80
2019-01-27T07:54:47.406Z,54.20
2019-01-27T07:57:51.395Z,57.30
2019-01-27T08:00:45.395Z,56.10
2019-01-27T08:03:55.745Z,55.10
2019-01-27T08:06:49.412Z,55.20
2019-01-27T08:09:44.514Z,51.20
2019-01-27T08:12:43.112Z,52.80
2019-01-27T08:15:38.224Z,53.70
2019-01-27T08:18:46.336Z,55.00
2019-01-27T08:21:32.177Z,52.20
2019-01-27T08:24:25.449Z,54.70
2019-01-27T08:27:12.944Z,52.80
2019-01-27T08:30:20.237Z,53.00
2019-01-27T08:33:18.273Z,51.20
2019-01-27T08:36:12.365Z,49.70
2019-01-27T08:39:08.563Z,51.60
2019-01-27T08:42:03.964Z,51.10
2019-01-27T08:44:56.580Z,52.00
2019-01-27T08:47:33.515Z,51.00
2019-01-27T08:50:14.120Z,52.80
2019-01-27T08:52:51.237Z,49.80
2019-01-27T08:55:28.464Z,51.60
2019-01-27T08:58:07.345Z,51.40
2019-01-27T09:00:49.816Z,51.40
2019-01-27T09:03:45.226Z,50.00
2019-01-27T09:06:32.820Z,53.50
2019-01-27T09:09:20.551Z,49.30
2019-01-27T09:12:15.685Z,51.60
2019-01-27T09:15:03.632Z,50.50
2019-01-27T09:17:58.148Z,53.40
2019-01-27T09:20:43.301Z,53.40
2019-01-27T09:23:39.839Z,52.90
2019-01-27T09:26:28.523Z,50.60
2019-01-27T09:29:18.895Z,51.80
2019-01-27T09:32:04.167Z,52.90
2019-01-27T09:34:47.453Z,49.80
2019-01-27T09:37:41.267Z,50.30
2019-01-27T09:40:48.415Z,50.60
2019-01-27T09:43:52.024Z,51.30
2019-01-27T09:46:58.876Z,53.50
2019-01-27T09:50:02.865Z,50.60
2019-01-27T09:53:00.579Z,51.00
2019-01-27T09:55:51.003Z,52.80
2019-01-27T09:58:48.800Z,52.80
2019-01-27T10:01:56.388Z,52.50
2019-01-27T10:04:57.853Z,52.60
2019-01-27T10:07:44.690Z,54.20
2019-01-27T10:10:48.574Z,52.30
2019-01-27T10:13:43.788Z,52.80
2019-01-27T10:16:39.011Z,54.70
2019-01-27T10:19:32.708Z,54.30
2019-01-27T10:22:30.443Z,56.00
2019-01-27T10:25:25.845Z,57.10
2019-01-27T10:28:19.647Z,55.10
2019-01-27T10:31:11.359Z,53.90
2019-01-27T10:33:56.166Z,55.90
2019-01-27T10:37:11.661Z,55.60
2019-01-27T10:39:55.190Z,55.10
2019-01-27T10:42:39.973Z,54.50
2019-01-27T10:45:40.857Z,56.00
2019-01-27T10:48:40.181Z,55.30
2019-01-27T10:51:43.859Z,55.80
2019-01-27T10:54:37.869Z,55.80
2019-01-27T10:57:31.108Z,57.50
2019-01-27T11:00:37.978Z,57.00
2019-01-27T11:03:40.372Z,55.40
2019-01-27T11:06:27.377Z,56.90
2019-01-27T11:09:25.547Z,56.90
2019-01-27T11:12:23.332Z,57.90
2019-01-27T11:15:13.397Z,57.10
2019-01-27T11:18:06.777Z,58.60
2019-01-27T11:21:04.942Z,58.40
2019-01-27T11:23:59.576Z,62.20
2019-01-27T11:27:03.570Z,62.90
2019-01-27T11:29:55.591Z,64.20
2019-01-27T11:32:50.201Z,65.60
2019-01-27T11:35:50.956Z,67.20
2019-01-27T11:38:44.511Z,68.10
2019-01-27T11:41:31.565Z,68.60
2019-01-27T11:44:29.529Z,69.50
2019-01-27T11:47:31.671Z,69.00
2019-01-27T11:50:29.692Z,66.10
2019-01-27T11:53:08.941Z,67.30
2019-01-27T11:55:46.446Z,70.70
2019-01-27T11:58:23.381Z,70.60
2019-01-27T12:01:02.660Z,70.00
2019-01-27T12:03:42.248Z,73.20
2019-01-27T12:06:19.880Z,72.90
2019-01-27T12:08:57.075Z,70.80
2019-01-27T12:11:34.050Z,72.50
2019-01-27T12:14:10.767Z,72.80
2019-01-27T12:16:47.703Z,75.80
2019-01-27T12:19:24.670Z,76.50
2019-01-27T12:22:01.435Z,75.70
2019-01-27T12:24:38.728Z,77.30
2019-01-27T12:27:15.883Z,77.40
2019-01-27T12:29:52.899Z,77.10
2019-01-27T12:32:28.895Z,78.10
2019-01-27T12:35:05.777Z,80.10
2019-01-27T12:37:43.067Z,79.00
2019-01-27T12:40:25.308Z,79.20
2019-01-27T12:43:04.820Z,77.30
2019-01-27T12:45:42.358Z,79.90
2019-01-27T12:48:19.976Z,79.50
2019-01-27T12:50:58.614Z,80.50
2019-01-27T12:53:35.851Z,86.80
2019-01-27T12:56:12.843Z,85.10
2019-01-27T12:58:50.246Z,83.30
2019-01-27T13:01:26.806Z,84.80
2019-01-27T13:04:05.290Z,84.40
2019-01-27T13:06:42.809Z,85.70
2019-01-27T13:09:19.541Z,87.60
2019-01-27T13:11:57.119Z,86.00
2019-01-27T13:14:33.892Z,88.80
2019-01-27T13:17:10.932Z,90.20
2019-01-27T13:19:53.727Z,90.10
2019-01-27T13:22:27.174Z,90.20
2019-01-27T13:25:03.862Z,90.40
2019-01-27T13:27:40.810Z,89.90
2019-01-27T13:30:20.053Z,89.50
2019-01-27T13:32:57.150Z,89.70
2019-01-27T13:35:38.749Z,88.70
2019-01-27T13:38:12.749Z,90.50
2019-01-27T13:40:50.834Z,90.40
2019-01-27T13:43:28.480Z,91.20
2019-01-27T13:46:05.468Z,90.80
2019-01-27T13:48:42.534Z,91.20
2019-01-27T13:51:19.813Z,90.90
2019-01-27T13:53:57.360Z,91.60
2019-01-27T13:56:34.580Z,91.10
2019-01-27T13:59:11.206Z,91.10
2019-01-27T14:01:49.528Z,91.00
2019-01-27T14:04:26.877Z,90.70
2019-01-27T14:07:04.363Z,91.60
2019-01-27T14:09:42.442Z,92.00
2019-01-27T14:12:20.102Z,92.80
2019-01-27T14:14:57.026Z,92.20
2019-01-27T14:17:34.005Z,92.50
2019-01-27T14:20:14.008Z,92.40
2019-01-27T14:22:51.569Z,92.00
2019-01-27T14:25:30.468Z,91.90
2019-01-27T14:28:07.780Z,92.30
2019-01-27T14:30:47.453Z,92.90
2019-01-27T14:33:25.386Z,93.10
2019-01-27T14:36:02.289Z,92.70
2019-01-27T14:38:39.683Z,92.60
2019-01-27T14:41:16.572Z,91.80
2019-01-27T14:43:54.149Z,91.70
2019-01-27T14:46:31.327Z,92.20
2019-01-27T14:49:07.785Z,91.70
2019-01-27T14:51:43.897Z,91.30
2019-01-27T14:54:21.213Z,91.70
2019-01-27T14:56:57.908Z,91.80
2019-01-27T14:59:34.572Z,91.80
2019-01-27T15:02:11.277Z,91.70
2019-01-27T15:04:48.333Z,92.00
2019-01-27T15:07:25.215Z,91.80
2019-01-27T15:10:01.821Z,91.30
2019-01-27T15:12:38.820Z,91.20
2019-01-27T15:15:18.009Z,91.50
2019-01-27T15:17:55.204Z,93.60
2019-01-27T15:20:34.622Z,93.70
2019-01-27T15:23:11.324Z,94.10
2019-01-27T15:25:49.480Z,94.00
2019-01-27T15:28:29.197Z,92.90
2019-01-27T15:31:06.537Z,93.30
2019-01-27T15:33:43.578Z,93.40
2019-01-27T15:36:20.359Z,94.20
2019-01-27T15:38:57.219Z,95.10
2019-01-27T15:41:34.060Z,95.80
2019-01-27T15:44:11.624Z,96.20
2019-01-27T15:46:48.647Z,96.10
2019-01-27T15:49:25.342Z,96.20
2019-01-27T15:52:02.111Z,95.90
2019-01-27T15:54:39.550Z,95.50
2019-01-27T15:57:16.561Z,95.70
2019-01-27T15:59:53.169Z,97.90
2019-01-27T16:02:29.404Z,98.20
2019-01-27T16:05:06.160Z,97.60
2019-01-27T16:07:42.891Z,96.80
2019-01-27T16:10:21.893Z,96.10
2019-01-27T16:12:59.104Z,94.90
2019-01-27T16:15:37.069Z,95.00
2019-01-27T16:18:13.987Z,95.80
2019-01-27T16:20:50.816Z,95.80
2019-01-27T16:23:44.830Z,95.20
2019-01-27T16:26:21.387Z,95.00
2019-01-27T16:28:58.878Z,93.10
2019-01-27T16:31:49.768Z,93.50
2019-01-27T16:34:50.660Z,93.20
2019-01-27T16:37:27.087Z,93.60
2019-01-27T16:40:04.105Z,92.90
2019-01-27T16:42:40.622Z,93.30
2019-01-27T16:45:19.363Z,94.20
2019-01-27T16:47:56.005Z,94.70
2019-01-27T16:50:32.819Z,94.80
2019-01-27T16:53:09.579Z,95.30
2019-01-27T16:55:46.507Z,95.60
2019-01-27T16:58:23.346Z,95.70
2019-01-27T17:01:00.682Z,95.50
2019-01-27T17:03:39.186Z,95.50
2019-01-27T17:06:15.763Z,95.90
2019-01-27T17:08:52.377Z,96.30
2019-01-27T17:11:28.959Z,96.10
2019-01-27T17:14:05.951Z,96.30
2019-01-27T17:16:43.903Z,96.60
2019-01-27T17:19:20.657Z,96.40
2019-01-27T17:21:57.205Z,96.20
2019-01-27T17:24:36.686Z,96.00
2019-01-27T17:27:13.359Z,96.00
2019-01-27T17:29:52.910Z,96.40
2019-01-27T17:32:30.191Z,98.10
2019-01-27T17:35:07.362Z,98.40
2019-01-27T17:37:44.978Z,97.90
2019-01-27T17:40:21.169Z,97.60
2019-01-27T17:42:58.422Z,97.60
2019-01-27T17:45:36.050Z,97.50
2019-01-27T17:48:12.311Z,97.20
2019-01-27T17:50:48.778Z,97.20
2019-01-27T17:53:25.615Z,97.30
2019-01-27T17:56:02.261Z,97.30
2019-01-27T17:58:54.314Z,97.70
2019-01-27T18:01:49.540Z,97.60
2019-01-27T18:04:38.483Z,97.40
2019-01-27T18:07:42.334Z,97.50
2019-01-27T18:10:46.873Z,97.50
2019-01-27T18:13:50.795Z,98.10
2019-01-27T18:16:27.942Z,98.80
2019-01-27T18:19:04.508Z,98.90
2019-01-27T18:21:41.477Z,98.90
2019-01-27T18:24:18.132Z,98.50
2019-01-27T18:26:54.960Z,98.50
2019-01-27T18:29:33.865Z,98.60
2019-01-27T18:32:11.139Z,98.70
2019-01-27T18:34:48.283Z,98.60
2019-01-27T18:37:25.325Z,98.90
2019-01-27T18:40:02.086Z,98.80
2019-01-27T18:42:39.129Z,99.30
2019-01-27T18:45:17.578Z,98.80
2019-01-27T18:47:55.060Z,99.30
2019-01-27T18:50:32.306Z,98.90
2019-01-27T18:53:25.553Z,99.00
2019-01-27T18:56:16.604Z,99.40
2019-01-27T18:59:27.038Z,99.50
2019-01-27T19:02:28.094Z,99.40
2019-01-27T19:05:14.923Z,99.40
2019-01-27T19:08:08.361Z,99.50
2019-01-27T19:11:06.721Z,99.70
2019-01-27T19:14:16.017Z,99.80
2019-01-27T19:17:26.034Z,99.40
2019-01-27T19:20:16.038Z,99.70
2019-01-27T19:23:21.615Z,99.90
2019-01-27T19:26:18.251Z,99.80
2019-01-27T19:29:08.615Z,99.90
2019-01-27T19:32:01.528Z,99.90
2019-01-27T19:34:56.565Z,99.90
2019-01-27T19:37:53.041Z,99.90
2019-01-27T19:40:46.183Z,99.90
2019-01-27T19:43:46.143Z,99.90
2019-01-27T19:46:46.939Z,99.90
2019-01-27T19:49:46.939Z,99.90
2019-01-27T19:52:44.731Z,99.90
2019-01-27T19:55:38.384Z,99.90
2019-01-27T19:58:22.586Z,99.90
2019-01-27T20:01:36.081Z,99.90
2019-01-27T20:04:24.406Z,99.90
2019-01-27T20:07:15.131Z,99.90
2019-01-27T20:10:09.407Z,99.90
2019-01-27T20:13:08.722Z,99.90
2019-01-27T20:16:15.717Z,99.90
2019-01-27T20:19:20.447Z,99.90
2019-01-27T20:22:12.345Z,99.90
2019-01-27T20:24:58.231Z,99.90
2019-01-27T20:28:11.290Z,99.90
2019-01-27T20:31:09.396Z,99.90
2019-01-27T20:34:06.944Z,99.90
2019-01-27T20:37:05.124Z,99.90
2019-01-27T20:39:55.660Z,99.90
2019-01-27T20:42:41.195Z,99.90
2019-01-27T20:45:48.494Z,99.90
2019-01-27T20:48:41.371Z,99.90
2019-01-27T20:51:51.598Z,99.90
2019-01-27T20:54:46.501Z,99.90
2019-01-27T20:57:29.783Z,99.90
2019-01-27T21:00:26.942Z,99.90
2019-01-27T21:03:20.370Z,99.90
2019-01-27T21:06:05.646Z,99.90
2019-01-27T21:08:52.004Z,99.90
2019-01-27T21:11:49.324Z,99.90
2019-01-27T21:14:40.776Z,99.90
2019-01-27T21:17:39.116Z,99.90
2019-01-27T21:20:19.122Z,99.90
2019-01-27T21:22:56.131Z,99.90
2019-01-27T21:25:32.840Z,99.90
2019-01-27T21:28:10.042Z,99.90
2019-01-27T21:30:46.646Z,99.90
2019-01-27T21:33:23.673Z,99.90
2019-01-27T21:36:00.683Z,99.90
2019-01-27T21:38:39.026Z,99.90
2019-01-27T21:41:15.806Z,99.90
2019-01-27T21:43:52.436Z,99.90
2019-01-27T21:46:29.501Z,99.90
2019-01-27T21:49:06.328Z,99.90
2019-01-27T21:51:43.721Z,99.90
2019-01-27T21:54:20.139Z,99.90
2019-01-27T21:56:57.013Z,99.90
2019-01-27T21:59:34.376Z,99.90
2019-01-27T22:02:11.200Z,99.90
2019-01-27T22:04:49.505Z,99.90
2019-01-27T22:07:26.363Z,99.90
2019-01-27T22:10:03.354Z,99.90
2019-01-27T22:12:40.229Z,99.90
2019-01-27T22:15:17.316Z,99.90
2019-01-27T22:17:54.388Z,99.90
2019-01-27T22:20:31.466Z,99.90
2019-01-27T22:23:08.346Z,99.90
2019-01-27T22:25:45.309Z,99.90
2019-01-27T22:28:21.864Z,99.90
2019-01-27T22:30:58.698Z,99.90
2019-01-27T22:33:35.447Z,99.90
2019-01-27T22:36:12.664Z,99.90
2019-01-27T22:38:49.868Z,99.90
2019-01-27T22:41:26.505Z,99.90
2019-01-27T22:44:03.531Z,99.90
2019-01-27T22:46:40.433Z,99.90
2019-01-27T22:49:17.961Z,99.90
2019-01-27T22:51:54.908Z,99.90
2019-01-27T22:54:31.852Z,99.90
2019-01-27T22:57:08.596Z,99.90
2019-01-27T22:59:45.329Z,99.90
2019-01-27T23:02:22.198Z,99.90
2019-01-27T23:04:58.361Z,99.90
2019-01-27T23:07:35.302Z,99.90
2019-01-27T23:10:12.161Z,99.90
2019-01-27T23:12:49.133Z,99.90
2019-01-27T23:15:25.855Z,99.90
2019-01-27T23:18:02.627Z,99.90
2019-01-27T23:20:40.038Z,99.90
2019-01-27T23:23:16.680Z,99.90
2019-01-27T23:25:53.868Z,99.90
2019-01-27T23:28:30.685Z,99.90
2019-01-27T23:31:08.012Z,99.90
2019-01-27T23:33:44.771Z,99.90
2019-01-27T23:36:21.743Z,99.90
2019-01-27T23:38:59.012Z,99.90
2019-01-27T23:41:35.755Z,99.90
2019-01-27T23:44:12.475Z,99.90
2019-01-27T23:46:49.969Z,99.90
2019-01-27T23:49:26.364Z,99.90
2019-01-27T23:52:04.115Z,99.90
2019-01-27T23:54:40.964Z,99.90
2019-01-27T23:57:18.443Z,99.90
2019-01-27T23:59:56.153Z,99.90
